Eureka, North Carolina
Current Conditions -  °F | °C
As of 6:55 AM on Saturday 25 Oct 2014 (Local Time) from KGWW Reporting Station
Haze Haze  
Wind Chill:   Ceiling: Unl
Heat Index:   Visibility: 5mi
Dew Point:   Wind: 0mph
Humidity: 99%   Direction: NA
Pressure: 30"   Gusts: NA
Location:  35.5277°N, 77.996°W
Report Text: KGWW 251055Z AUTO 00000KT 5SM BR CLR 05/05 A3000 RMK AO2 T00500049
Loading
Personal Weather Stations






























Interactive Weather Map
Tropical Storm Tracking
New forecast layout! Learn more

10-Day Weather Forecast

Advertisements
Track Severe Weather on mobile